• Join FlightAware (Why Join?)
  • Login
  • US Flag 
03:07AM EDT


 

Airport Tracker/Info


-or-


 

Live Flight TrackerFlight Track Log ✈ SWA2975 ✈ 04-Jul-2013 ✈ KMDW - KALB

Flight Track Log - Related Links

Times and Time Zones

All times are in EDT time to prevent confusion due to time zone crossing. See the SWA2975 flight status page for this flight to view local times or setup timezone preferences in your user account.

Time Position Orientation Groundspeed Altitude Reporting Facility
EDT Latitude Longitude Course Direction KTS MPH feet Rate Location/Type
10:27PM 41.7680 -87.7700 221° Southwest 151 174 2,000  Level FlightAware
10:27PM 41.7500 -87.7620 162° South 210 242 2,300 1,140 Climbing FlightAware
10:27PM 41.7420 -87.7330 110° East 237 273 2,900 1,020 Climbing FlightAware
10:28PM 41.7450 -87.6830 85° East 237 273 3,300 1,680 Climbing FlightAware
10:28PM 41.7470 -87.6480 86° East 238 274 4,600 3,000 Climbing FlightAware
10:29PM 41.7470 -87.6300 90° East 253 291 5,100 3,000 Climbing FlightAware
10:29PM 41.7490 -87.5780 87° East 277 319 6,700 3,300 Climbing FlightAware
10:29PM 41.7510 -87.5390 86° East 284 327 8,100 3,540 Climbing FlightAware
10:30PM 41.7530 -87.4880 87° East 295 339 9,800 3,480 Climbing FlightAware
10:31PM 41.7540 -87.4150 89° East 304 350 12,100 3,420 Climbing FlightAware
10:31PM 41.7560 -87.3370 88° East 310 357 14,500 2,580 Climbing FlightAware
10:32PM 41.7580 -87.2400 88° East 359 413 15,800 2,280 Climbing FlightAware
10:33PM 41.7600 -87.1480 88° East 372 428 17,800 2,760 Climbing FlightAware
10:33PM 41.7630 -87.0510 88° East 384 442 19,600 2,400 Climbing FlightAware
10:34PM 41.7860 -86.9590 71° East 406 467 21,000 1,980 Climbing FlightAware
10:35PM 41.8130 -86.8660 69° East 427 491 22,200 1,920 Climbing FlightAware
10:35PM 41.8410 -86.7690 69° East 438 504 23,600 1,800 Climbing FlightAware
10:36PM 41.8740 -86.6630 67° East 456 525 24,700 1,500 Climbing FlightAware
10:37PM 41.9040 -86.5660 67° East 474 545 25,600 1,980 Climbing FlightAware
10:37PM 41.9440 -86.4450 66° East 471 542 27,400 2,640 Climbing FlightAware
10:38PM 41.9800 -86.3430 65° Northeast 457 526 29,300 1,680 Climbing FlightAware
10:39PM 42.0070 -86.2240 73° East 457 526 29,800 780 Climbing FlightAware
10:39PM 42.0120 -86.1060 87° East 469 540 30,400 1,140 Climbing FlightAware
10:40PM 42.0200 -85.9790 85° East 476 548 31,400 1,380 Climbing FlightAware
10:41PM 42.0260 -85.8630 86° East 474 545 32,400 1,500 Climbing FlightAware
10:41PM 42.0320 -85.7560 86° East 476 548 33,300 1,320 Climbing FlightAware
10:42PM 42.0380 -85.6390 86° East 479 551 34,100 1,020 Climbing FlightAware
10:43PM 42.0450 -85.5050 86° East 486 559 34,800 1,020 Climbing FlightAware
10:43PM 42.0500 -85.3920 87° East 490 564 35,500 1,140 Climbing FlightAware
10:44PM 42.0560 -85.2830 86° East 490 564 36,200 1,020 Climbing FlightAware
10:45PM 42.0630 -85.1430 86° East 491 565 36,900 540 Climbing FlightAware
10:46PM 42.0690 -85.0090 87° East 492 566 37,000 60 Climbing FlightAware
10:46PM 42.0760 -84.8460 87° East 488 562 37,000  Level FlightAware
10:47PM 42.0810 -84.7280 87° East 487 560 37,000  Level FlightAware
10:48PM 42.0870 -84.5910 87° East 486 559 37,000  Level FlightAware
10:49PM 42.0920 -84.4660 87° East 484 557 37,000  Level FlightAware
10:49PM 42.0980 -84.3390 86° East 482 555 37,000  Level FlightAware
10:50PM 42.1020 -84.2270 87° East 482 555 37,000  Level FlightAware
10:51PM 42.1060 -84.1370 87° East 483 556 37,000  Level FlightAware
10:51PM 42.1120 -83.9570 87° East 486 559 37,000  Level FlightAware
10:52PM 42.1160 -83.8560 87° East 486 559 37,000  Level FlightAware
10:53PM 42.1210 -83.7100 87° East 487 560 37,000  Level FlightAware
10:53PM 42.1250 -83.5980 87° East 488 562 37,000  Level FlightAware
10:54PM 42.1300 -83.4580 87° East 489 563 37,000  Level FlightAware
10:55PM 42.1340 -83.3210 88° East 490 564 37,000  Level FlightAware
10:56PM 42.1390 -83.1570 88° East 492 566 37,000  Level FlightAware
10:56PM 42.1430 -83.0270 88° East 493 567 37,000  Level FlightAware
10:57PM 42.1460 -82.9050 88° East 494 568 37,000  Level FlightAware
10:58PM 42.1500 -82.7770 88° East 495 570 37,000  Level FlightAware
10:59PM 42.1530 -82.6440 88° East 495 570 37,000  Level FlightAware
10:59PM 42.1570 -82.5090 88° East 496 571 37,000  Level FlightAware
11:00PM 42.1590 -82.3990 89° East 496 571 37,000  Level FlightAware
11:01PM 42.1620 -82.2550 88° East 495 570 37,000  Level FlightAware
11:01PM 42.1650 -82.1320 88° East 494 568 37,000  Level FlightAware
11:02PM 42.1680 -81.9920 88° East 494 568 37,000  Level FlightAware
11:03PM 42.1700 -81.8750 89° East 494 568 37,000  Level FlightAware
11:03PM 42.1730 -81.7390 88° East 495 570 37,000  Level FlightAware
11:04PM 42.1750 -81.6130 89° East 495 570 37,000  Level FlightAware
11:05PM 42.1830 -81.4700 86° East 501 577 37,000  Level FlightAware
11:06PM 42.1950 -81.3530 82° East 501 577 37,000  Level FlightAware
11:06PM 42.2080 -81.2350 82° East 502 578 37,000  Level FlightAware
11:07PM 42.2210 -81.1110 82° East 501 577 37,000  Level FlightAware
11:08PM 42.2350 -80.9750 82° East 500 575 37,000  Level FlightAware
11:08PM 42.2480 -80.8520 82° East 500 575 37,000  Level FlightAware
11:09PM 42.2610 -80.7180 82° East 499 574 37,000  Level FlightAware
11:10PM 42.2720 -80.6150 82° East 499 574 37,000  Level FlightAware
11:10PM 42.2870 -80.4590 83° East 499 574 37,000  Level FlightAware
11:11PM 42.2980 -80.3520 82° East 499 574 37,000  Level FlightAware
11:12PM 42.3100 -80.2240 83° East 499 574 37,000  Level FlightAware
11:12PM 42.3230 -80.0870 83° East 499 574 37,000  Level FlightAware
11:13PM 42.3330 -79.9870 82° East 499 574 37,000  Level FlightAware
11:14PM 42.3470 -79.8390 83° East 501 577 37,000  Level FlightAware
11:14PM 42.3580 -79.7140 83° East 502 578 37,000  Level FlightAware
11:15PM 42.3710 -79.5770 83° East 504 580 37,000  Level FlightAware
11:16PM 42.3800 -79.4700 83° East 505 581 37,000  Level FlightAware
11:16PM 42.3930 -79.3330 83° East 506 582 37,000  Level FlightAware
11:17PM 42.4040 -79.2060 83° East 506 582 37,000  Level FlightAware
11:18PM 42.4160 -79.0710 83° East 505 581 37,000  Level FlightAware
11:18PM 42.4260 -78.9550 83° East 504 580 37,000  Level FlightAware
11:19PM 42.4360 -78.8330 84° East 501 577 37,000  Level FlightAware
11:20PM 42.4460 -78.7070 84° East 500 575 37,000  Level FlightAware
11:21PM 42.4580 -78.5640 83° East 499 574 37,000  Level FlightAware
11:21PM 42.4680 -78.4470 83° East 498 573 37,000  Level FlightAware
11:22PM 42.4790 -78.3030 84° East 497 572 37,000  Level FlightAware
11:23PM 42.4890 -78.1830 84° East 496 571 37,000  Level FlightAware
11:23PM 42.4970 -78.0830 84° East 495 570 37,000  Level FlightAware
11:24PM 42.5070 -77.9430 84° East 493 567 37,000 -420 Level FlightAware
11:25PM 42.5160 -77.8210 84° East 492 566 36,400 -1,020 Descending FlightAware
11:25PM 42.5240 -77.7180 84° East 491 565 35,800 -960 Descending FlightAware
11:26PM 42.5330 -77.5950 84° East 493 567 35,200 -1,020 Descending FlightAware
11:27PM 42.5440 -77.4470 84° East 491 565 34,400 -1,020 Descending FlightAware
11:27PM 42.5520 -77.3250 85° East 491 565 33,800 -1,020 Descending FlightAware
11:28PM 42.5610 -77.2030 84° East 491 565 33,100 -1,020 Descending FlightAware
11:29PM 42.5700 -77.0690 85° East 492 566 32,400 -960 Descending FlightAware
11:29PM 42.5800 -76.9300 84° East 482 555 31,700 -1,080 Descending FlightAware
11:30PM 42.5870 -76.8210 85° East 479 551 31,000 -1,080 Descending FlightAware
11:31PM 42.5950 -76.7090 84° East 476 548 30,400 -1,080 Descending FlightAware
11:31PM 42.6030 -76.5790 85° East 466 536 29,600 -1,020 Descending FlightAware
11:32PM 42.6100 -76.4630 85° East 462 532 29,000 -480 Descending FlightAware
11:33PM 42.6170 -76.3580 85° East 461 531 29,000  Level FlightAware
11:33PM 42.6240 -76.2340 86° East 461 531 29,000  Level FlightAware
11:34PM 42.6310 -76.1260 85° East 484 557 29,000  Level FlightAware
11:35PM 42.6390 -75.9910 85° East 496 571 29,000  Level FlightAware
11:35PM 42.6470 -75.8530 85° East 495 570 29,000  Level FlightAware
11:36PM 42.6540 -75.7250 86° East 496 571 29,000 -420 Level FlightAware
11:37PM 42.6620 -75.5850 86° East 503 579 28,400 -1,140 Descending FlightAware
11:37PM 42.6680 -75.4870 85° East 504 580 27,600 -2,460 Descending FlightAware
11:38PM 42.6750 -75.3480 86° East 496 571 25,300 -3,120 Descending FlightAware
11:39PM 42.6810 -75.2310 86° East 485 558 23,400 -2,940 Descending FlightAware
11:39PM 42.6870 -75.1160 86° East 474 545 21,600 -2,880 Descending FlightAware
11:40PM 42.6930 -75.0020 86° East 461 531 19,700 -2,880 Descending FlightAware
11:41PM 42.6990 -74.8760 86° East 446 513 17,600 -2,940 Descending FlightAware
11:41PM 42.7040 -74.7760 86° East 439 505 15,800 -2,880 Descending FlightAware
11:42PM 42.7090 -74.6840 86° East 435 501 14,200 -1,140 Descending FlightAware
11:43PM 42.7150 -74.5650 86° East 435 501 14,200  Level FlightAware
11:43PM 42.7190 -74.4820 86° East 435 501 14,200 -2,040 Level FlightAware
11:47PM 42.8110 -74.0640 73° East 6,300 -2,340 Descending FlightAware
11:47PM 42.8300 -74.0050 66° East 283 326 5,300 -2,580 Descending FlightAware
11:48PM 42.8480 -73.9480 67° East 284 327 3,400 -2,580 Descending FlightAware
11:48PM 42.8640 -73.8890 70° East 273 314 2,300 -1,500 Descending FlightAware
11:49PM 42.8660 -73.8730 80° East 236 272 2,300  Level FlightAware
11:49PM 42.8690 -73.8420 82° East 236 272 2,300 -360 Level FlightAware
11:50PM 42.8403 -73.8050 82° East 151 174 1,900 -660 Descending Boston Center
11:51PM 42.7964 -73.8097 185° South 140 161 1,100 -300 Descending Boston Center
11:52PM 42.8558 -73.7147 49° Northeast 62 71 1,200 60 Climbing Boston Center